Date,TemperatureHighF,TemperatureAvgF,TemperatureLowF,DewpointHighF,DewpointAvgF,DewpointLowF,HumidityHigh,HumidityAvg,HumidityLow,PressureMaxIn,PressureMinIn,WindSpeedMaxMPH,WindSpeedAvgMPH,GustSpeedMaxMPH,PrecipitationSumIn
2013-1-1,32,30,24,31,27,20,94,88,74,30.04,29.97,5,1,0,0.01
2013-1-2,13,12,10,10,9,8,89,88,87,30.23,30.21,0,0,0,0.00
2013-1-3,32,18,3,23,13,0,100,79,61,30.23,30.13,9,2,0,0.00
2013-1-4,32,28,25,23,20,18,80,72,63,30.25,30.15,10,6,0,0.01
2013-1-5,36,27,12,28,21,9,91,78,66,30.36,30.11,7,2,0,0.08
2013-1-6,37,35,31,33,29,26,90,80,73,30.22,29.94,6,3,0,0.07
2013-1-7,33,29,21,28,25,19,91,86,83,30.43,30.22,5,2,0,0.01
2013-1-8,42,27,16,32,23,14,94,85,65,30.33,30.22,6,1,0,0.00
2013-1-9,47,36,21,40,31,19,94,84,66,30.46,30.17,8,2,0,0.05
2013-1-10,39,31,24,31,26,22,92,84,69,30.50,30.20,0,0,0,0.01
2013-1-11,58,45,36,54,41,30,94,87,70,30.20,29.84,10,2,0,0.43
2013-1-12,62,56,42,58,53,40,94,91,82,30.00,29.82,6,2,0,0.00
2013-1-13,66,61,42,59,56,40,94,85,75,29.92,29.71,11,4,0,0.18
2013-1-14,42,34,26,40,30,21,92,83,73,30.36,29.93,6,2,0,0.00
2013-1-15,33,28,21,25,23,19,91,80,67,30.37,30.06,4,1,0,0.00
2013-1-16,36,32,30,30,27,24,93,82,73,30.07,29.87,6,2,0,0.01
2013-1-17,37,34,28,30,28,19,87,79,69,30.21,29.99,7,1,0,0.00
2013-1-18,34,27,17,23,17,11,82,67,56,30.48,30.18,9,5,0,0.00
2013-1-19,53,43,33,30,26,23,67,51,32,30.18,29.75,12,7,0,0.00
2013-1-20,47,33,24,34,20,14,67,58,48,30.13,29.72,15,6,0,0.00
2013-1-21,24,20,10,20,12,2,92,73,54,30.11,29.93,11,4,0,0.00
2013-1-22,14,9,4,6,1,-2,83,69,59,30.30,30.11,8,4,0,0.00
2013-1-23,18,10,-1,13,4,-4,88,77,54,30.32,30.07,6,2,0,0.00
2013-1-24,25,16,11,15,9,4,89,74,46,30.54,30.07,6,1,0,0.00
2013-1-25,15,14,12,7,7,6,80,72,69,30.50,30.38,3,0,0,0.00
2013-1-26,23,20,15,18,16,11,87,82,79,30.44,30.39,3,0,0,0.03
2013-1-27,31,21,5,24,15,2,98,78,65,30.52,30.25,7,1,0,0.01
2013-1-28,50,41,30,48,39,24,94,92,77,30.26,29.96,6,3,0,0.43
2013-1-29,64,56,49,58,52,47,94,87,74,30.01,29.64,10,4,0,0.05
2013-1-30,67,58,37,58,52,34,92,82,69,29.63,29.12,20,9,0,0.70
2013-1-31,37,26,20,34,20,13,93,77,64,29.85,29.28,14,8,0,0.01
2013-2-1,20,16,13,14,9,6,78,72,68,30.33,29.84,7,5,0,0.00
2013-2-2,24,18,10,22,14,5,91,84,73,30.32,29.96,8,3,0,0.00
2013-2-3,24,21,17,22,16,12,92,82,71,30.04,29.85,8,2,0,0.01
2013-2-4,26,21,14,24,18,10,93,87,79,30.06,29.84,5,2,0,0.00
2013-2-5,30,27,25,26,24,22,100,89,74,29.93,29.83,4,0,0,0.03
2013-2-6,33,26,13,26,20,10,93,79,58,30.29,29.93,5,1,0,0.09
2013-2-7,46,30,12,32,24,9,91,78,57,30.26,29.86,6,1,0,0.00
2013-2-8,41,32,26,37,28,21,93,85,79,30.21,29.72,8,3,0,0.14
2013-2-9,34,26,17,23,20,15,89,77,61,30.40,30.21,4,1,0,0.00
2013-2-10,49,33,15,37,24,13,92,70,46,30.31,29.84,14,2,0,0.01
2013-2-11,56,45,36,46,37,26,93,74,51,29.89,29.65,13,8,0,0.01
2013-2-12,43,34,25,29,26,22,90,71,54,30.06,29.87,10,3,0,0.00
2013-2-13,35,28,22,29,25,20,93,86,79,29.88,29.68,3,0,0,0.00
2013-2-14,38,31,22,35,28,19,93,91,86,29.89,29.81,9,4,0,0.00
2013-2-17,21,16,11,13,10,7,85,77,60,30.24,30.18,3,0,0,0.01
2013-2-18,47,18,7,33,12,4,90,78,57,30.27,29.77,10,3,0,0.00
2013-2-19,49,34,21,39,28,14,91,79,55,29.97,29.60,18,9,0,0.38
2013-2-20,23,20,18,18,14,10,88,76,66,30.23,29.97,10,5,0,0.00
2013-2-21,27,22,20,19,16,14,92,77,68,30.34,30.20,5,2,0,0.01
2013-2-22,42,32,22,39,28,16,93,85,75,30.27,29.91,7,1,0,0.03
2013-2-23,42,36,26,34,30,23,93,80,62,29.95,29.83,6,1,0,0.00
2013-2-24,30,28,26,26,24,21,92,85,77,30.01,29.85,5,1,0,0.00
2013-2-26,40,39,37,38,37,35,92,91,90,29.57,29.48,6,4,0,1.04
2013-2-27,42,38,34,40,36,30,94,90,83,29.63,29.46,7,4,0,0.33
2013-2-28,37,34,32,33,31,29,92,88,84,29.83,29.57,6,3,0,0.02
2013-3-1,32,30,26,29,25,21,90,84,76,29.98,29.83,7,2,0,0.01
2013-3-2,30,27,25,25,23,22,89,84,75,29.98,29.92,8,2,0,0.01
2013-3-3,29,25,23,23,19,15,89,78,67,30.02,29.94,6,2,0,0.01
2013-3-4,30,23,17,22,18,14,87,79,65,30.13,30.01,6,1,0,0.00
2013-3-5,45,33,19,25,21,17,92,66,35,30.07,29.58,5,1,0,0.00
2013-3-6,43,38,34,34,32,30,90,78,68,30.10,29.78,4,1,0,0.21
2013-3-8,32,26,25,29,23,22,90,87,84,30.41,30.30,4,0,0,0.00
2013-3-9,56,37,20,36,28,18,93,73,40,30.40,30.09,8,1,0,0.00
2013-3-10,70,56,43,44,38,32,84,53,32,30.09,29.83,9,3,0,0.01
2013-3-11,61,55,44,50,42,36,91,64,43,29.84,29.55,12,6,0,0.76
2013-3-12,44,38,33,38,32,29,88,79,70,29.95,29.71,8,4,0,0.01
2013-3-13,33,31,27,30,27,21,92,86,76,30.16,29.89,7,2,0,0.01
2013-3-14,41,30,22,26,21,16,92,70,50,30.24,30.11,9,3,0,0.01
2013-3-15,49,37,22,38,30,20,91,76,58,30.11,29.80,8,2,0,0.02
2013-3-16,42,38,31,40,36,28,93,92,88,29.96,29.57,4,1,0,0.06
2013-3-17,36,32,29,28,26,23,89,79,69,30.16,29.96,5,2,0,0.00
2013-3-18,48,38,30,47,34,23,93,88,74,30.10,29.58,8,3,0,0.74
2013-3-19,36,32,30,29,22,19,78,65,57,29.95,29.74,13,8,0,0.01
2013-3-20,37,30,24,22,19,17,84,65,50,29.95,29.84,10,4,0,0.00
2013-3-21,30,24,16,24,16,9,87,72,58,29.92,29.86,7,4,0,0.00
2013-3-22,40,30,24,25,21,18,84,71,51,30.00,29.91,7,3,0,0.00
2013-3-23,46,31,18,28,22,16,92,73,42,30.03,29.96,7,1,0,0.00
2013-3-24,39,33,28,31,24,22,83,71,57,29.97,29.43,6,1,0,0.00
2013-3-25,36,34,33,33,32,30,93,91,83,29.50,29.36,4,1,0,0.39
2013-3-27,42,38,33,32,29,26,92,72,54,30.16,30.06,7,4,0,0.00
2013-3-28,46,39,32,32,29,26,84,67,56,30.24,30.13,6,2,0,0.00
2013-3-29,53,40,27,33,28,24,92,67,37,30.24,30.14,8,1,0,0.00
2013-3-30,57,39,22,32,26,19,92,65,32,30.23,30.00,7,2,0,0.00
2013-4-1,37,35,32,19,18,16,53,49,47,30.02,29.96,4,2,0,0.00
2013-4-2,41,32,22,20,17,14,73,54,37,30.18,30.02,8,3,0,0.00
2013-4-3,42,31,20,22,17,13,87,58,37,30.38,30.17,8,2,0,0.00
2013-4-4,54,34,17,24,17,11,88,55,18,30.37,29.94,7,2,0,0.00
2013-4-5,55,38,23,37,26,19,87,63,35,30.17,29.91,8,2,0,0.00
2013-4-6,60,42,22,23,20,15,86,47,18,30.24,29.90,10,3,0,0.00
2013-4-7,74,62,50,48,39,17,69,44,25,29.93,29.80,11,6,0,0.00
2013-4-8,73,59,42,54,47,38,87,66,47,29.95,29.80,13,4,0,0.00
2013-4-9,82,68,49,60,54,46,89,62,45,30.02,29.81,10,4,0,0.00
2013-4-10,78,67,59,69,60,54,93,79,61,29.85,29.69,9,2,0,2.61
2013-4-11,66,59,55,62,56,53,94,91,84,29.82,29.47,8,2,0,0.26
2013-4-12,59,47,42,56,41,36,90,80,71,29.82,29.46,11,5,0,0.45
2013-4-13,48,43,34,37,35,30,87,75,65,30.00,29.81,9,4,0,0.00
2013-4-14,64,46,28,44,36,26,93,69,44,30.11,29.92,6,1,0,0.01
2013-4-15,67,59,46,54,48,40,86,69,58,29.99,29.88,15,5,0,0.00
2013-4-16,77,64,56,64,56,50,83,75,61,30.04,29.92,10,6,0,0.00
2013-4-17,67,61,51,57,53,47,92,76,66,30.18,29.98,7,2,0,0.00
2013-4-18,84,71,55,66,59,52,93,69,43,30.01,29.60,16,6,0,0.00
2013-4-19,74,70,65,61,58,55,85,65,54,29.60,29.33,18,12,0,0.11
2013-4-20,43,41,39,32,29,27,71,63,56,30.15,30.07,10,7,0,0.00
2013-4-21,49,43,36,30,28,26,77,57,40,30.42,30.40,0,0,0,0.00
2013-4-22,66,50,30,43,34,27,89,59,36,30.41,30.16,8,2,0,0.00
2013-4-23,72,57,37,46,39,28,85,52,35,30.17,29.83,9,3,0,0.00
2013-4-24,60,51,35,56,46,32,92,85,65,30.13,29.66,11,3,0,0.88
2013-4-25,55,42,29,42,35,27,93,78,49,30.32,30.12,10,3,0,0.02
2013-4-26,61,46,32,43,33,29,93,67,32,30.44,30.32,5,1,0,0.01
2013-4-27,72,55,32,45,38,30,92,59,27,30.33,30.05,9,2,0,0.00
2013-4-28,59,52,45,56,48,39,92,87,77,30.07,29.84,6,2,0,0.59
2013-4-29,63,60,53,59,56,51,92,87,81,29.93,29.88,6,2,0,0.05
2013-4-30,76,62,48,60,53,46,94,77,51,30.06,29.93,7,2,0,0.01
2013-5-1,79,66,51,61,54,46,91,67,45,30.20,30.06,8,2,0,0.00
2013-5-2,77,65,48,55,48,40,83,55,41,30.24,30.08,10,2,0,0.00
2013-5-3,78,66,50,48,44,39,78,46,27,30.13,29.98,10,4,0,0.00
2013-5-4,71,59,51,47,40,34,64,50,34,30.09,30.00,8,3,0,0.00
2013-5-5,76,69,61,36,31,27,35,25,20,29.94,29.89,7,2,0,0.00
2013-5-6,74,63,53,55,47,32,72,56,34,29.97,29.88,7,2,0,0.00
2013-5-7,69,62,56,59,55,52,91,79,65,29.94,29.88,8,1,0,0.03
2013-5-8,73,64,56,57,54,50,91,73,47,29.91,29.84,4,1,0,0.03
2013-5-9,82,66,55,60,55,49,93,72,35,29.93,29.85,7,1,0,0.02
2013-5-10,70,61,57,63,58,54,92,89,80,29.90,29.81,7,3,0,0.12
2013-5-11,54,52,48,50,48,43,88,85,82,29.83,29.76,10,2,0,0.09
2013-5-12,50,43,36,43,36,31,89,79,51,29.92,29.83,9,3,0,0.00
2013-5-13,54,46,36,32,31,29,82,59,39,30.13,30.08,3,1,0,0.00
2013-5-14,39,33,30,34,30,28,91,89,82,30.13,30.10,0,0,0,0.00
2013-5-15,86,79,62,65,62,57,84,56,44,29.72,29.64,9,5,0,0.00
2013-5-20,70,68,67,67,65,64,93,90,89,29.92,29.91,6,4,0,0.00
2013-5-22,84,76,65,68,65,62,89,69,51,29.78,29.66,11,7,0,0.00
2013-5-23,70,53,45,60,49,42,91,86,68,29.94,29.72,7,3,0,0.31
2013-5-24,50,45,36,42,38,33,91,77,60,30.27,29.94,7,3,0,0.00
2013-5-25,63,46,32,42,36,30,93,74,39,30.34,30.22,5,2,0,0.01
2013-5-26,68,52,33,42,38,31,93,63,32,30.28,30.17,4,1,0,0.00
2013-5-27,60,55,49,52,48,44,86,77,72,30.20,30.00,2,0,0,0.04
2013-5-28,82,66,55,68,60,52,93,81,60,30.00,29.86,10,2,0,0.43
2013-5-29,86,76,66,68,64,60,88,67,50,29.99,29.90,10,4,0,0.00
2013-5-30,66,64,62,63,61,59,92,90,89,30.04,29.98,0,0,0,0.00
2013-6-1,83,81,72,71,70,68,87,70,66,29.77,29.71,10,8,0,0.10
2013-6-8,73,68,58,60,58,55,92,71,59,30.03,29.93,5,1,0,0.00
2013-6-9,81,69,57,68,62,54,93,80,61,30.08,29.91,7,1,0,0.01
2013-6-10,72,68,66,69,66,64,93,92,88,29.92,29.70,6,2,0,0.21
2013-6-13,73,72,70,62,61,58,74,68,61,29.66,29.64,5,3,0,0.07
2013-6-22,76,74,72,70,69,68,87,85,81,30.02,30.00,0,0,0,0.00
2013-6-23,88,78,66,73,68,64,94,75,49,30.06,29.94,8,2,0,0.00
2013-6-24,87,76,63,71,67,61,93,75,54,30.06,29.91,6,1,0,0.00
2013-6-25,88,78,68,78,71,66,92,80,64,29.96,29.78,9,2,0,1.06
2013-6-26,81,74,68,74,69,66,94,86,74,29.87,29.71,6,2,0,0.44
2013-6-27,80,73,68,72,69,66,94,88,73,29.72,29.55,2,0,0,0.02
2013-6-28,82,70,63,72,66,60,94,87,62,29.56,29.42,9,1,0,0.32
2013-6-29,76,67,60,68,64,59,94,88,75,29.61,29.47,5,1,0,0.07
2013-6-30,80,70,62,70,66,61,96,87,66,29.78,29.61,5,0,0,0.08
2013-7-1,78,69,65,72,66,63,94,91,78,29.87,29.75,3,0,0,0.14
2013-7-2,82,73,66,72,68,64,94,85,69,29.97,29.85,6,2,0,0.01
2013-7-3,79,71,68,73,68,66,94,91,79,30.06,29.96,5,1,0,0.00
2013-7-4,76,73,71,70,70,70,94,89,82,30.07,30.05,2,0,0,0.00
2013-7-5,79,72,69,73,70,67,94,92,80,30.09,30.01,5,1,0,0.14
2013-7-6,85,76,69,76,71,67,95,85,68,30.08,29.93,7,2,0,0.00
2013-7-7,79,73,68,70,67,65,92,83,71,30.03,29.92,4,1,0,0.00
2013-7-8,84,73,62,74,68,60,94,84,68,30.04,29.96,5,1,0,0.01
2013-7-9,86,74,70,78,72,68,94,91,76,30.01,29.86,5,2,0,0.51
2013-7-10,87,75,66,80,71,64,95,90,72,29.91,29.71,8,2,0,0.16
2013-7-11,78,70,59,66,63,56,95,79,58,29.95,29.84,4,1,0,0.04
2013-7-12,77,67,56,66,61,54,94,82,61,30.04,29.95,4,1,0,0.00
2013-7-13,83,73,62,71,66,60,94,81,62,30.13,30.02,4,1,0,0.00
2013-7-14,88,77,66,76,71,64,94,81,62,30.18,30.11,8,2,0,0.01
2013-7-15,91,80,68,76,72,66,94,79,55,30.25,30.15,3,0,0,0.00
2013-7-16,92,80,70,78,74,68,94,84,60,30.24,30.16,4,0,0,0.00
2013-7-17,92,82,72,79,75,70,95,81,60,30.22,30.06,2,0,0,0.02
2013-7-18,92,82,72,79,75,70,94,81,61,30.10,29.93,2,0,0,0.00
2013-7-19,91,79,72,78,73,70,95,84,62,29.94,29.78,8,1,0,0.00
2013-7-20,80,74,71,73,70,68,94,88,73,29.84,29.74,7,1,0,0.14
2013-7-21,85,75,70,74,70,67,94,85,64,29.88,29.82,4,0,0,0.00
2013-7-22,75,70,67,72,68,65,94,94,92,29.87,29.68,1,0,0,0.66
2013-7-23,82,72,65,75,68,64,95,89,74,29.72,29.58,6,1,0,0.60
2013-7-25,72,63,57,59,57,54,92,81,61,30.03,29.99,0,0,0,0.00
2013-7-26,78,66,51,63,58,50,95,77,51,30.04,29.91,5,0,0,0.00
2013-7-27,71,66,62,68,64,59,95,92,85,29.91,29.75,5,1,0,0.09
2013-7-28,70,64,56,63,57,53,95,79,54,29.96,29.77,2,0,0,0.00
2013-7-29,72,63,52,60,56,50,95,78,56,30.13,29.96,3,0,0,0.00
2013-7-30,78,65,51,64,58,49,95,80,55,30.18,30.08,3,0,0,0.00
2013-7-31,75,66,58,68,63,57,95,90,75,30.09,29.87,3,0,0,0.04
2013-8-1,81,72,63,68,65,60,95,80,55,29.87,29.78,1,0,0,0.05
2013-8-2,75,66,55,64,59,54,95,80,58,29.94,29.84,3,0,0,0.00
2013-8-3,80,70,58,68,62,55,95,78,55,29.93,29.87,4,0,0,0.44
2013-8-4,75,64,54,63,57,52,95,79,55,30.05,29.92,4,1,0,0.00
2013-8-9,63,63,62,61,61,60,94,92,91,29.95,29.93,0,0,0,0.51
2013-8-10,81,71,61,71,65,59,95,82,63,30.03,29.95,1,0,0,0.03
2013-11-17,62,58,53,59,51,42,93,78,67,29.58,29.41,16,9,0,0.75
2013-11-18,53,46,37,43,36,27,83,69,55,30.06,29.58,12,6,0,0.00
2013-11-19,41,34,24,29,26,21,90,73,59,30.37,30.06,3,1,0,0.00
2013-11-20,48,32,21,29,23,19,94,72,36,30.41,30.28,8,1,0,0.00
2013-11-21,55,43,28,44,35,23,89,74,55,30.37,30.15,6,1,0,0.14
2013-11-22,53,47,36,51,45,31,94,91,82,30.27,30.04,6,2,0,0.15
2013-11-23,38,29,20,31,24,11,92,80,60,30.40,30.17,8,2,0,0.00
2013-11-24,25,19,12,15,11,8,88,73,56,30.55,30.39,7,2,0,0.00
2013-11-25,35,24,11,29,15,9,92,72,46,30.50,30.18,9,3,0,0.00
2013-11-26,33,32,30,32,30,28,100,92,90,30.19,29.79,3,0,0,0.07
2013-11-27,31,30,28,31,29,26,100,93,91,29.85,29.75,0,0,0,0.00
2013-11-30,40,30,22,30,25,20,92,80,64,30.28,30.17,6,1,0,0.04
2013-12-1,40,32,22,34,28,20,94,85,70,30.18,29.93,5,1,0,0.02
2013-12-2,42,35,30,37,33,28,93,90,83,29.93,29.81,3,0,0,0.00
2013-12-3,54,41,33,45,37,32,94,88,68,29.88,29.80,6,1,0,0.03
2013-12-4,59,47,35,51,43,33,95,86,72,29.92,29.75,6,1,0,0.00
2013-12-5,62,53,35,60,49,33,94,85,70,30.05,29.73,8,4,0,0.27
2013-12-6,35,31,27,33,30,26,94,93,89,30.29,30.01,5,1,0,0.13
2013-12-7,27,22,12,26,18,10,99,84,71,30.58,30.28,5,1,0,0.14
2013-12-8,21,16,12,17,14,10,92,89,80,30.57,30.42,2,0,0,0.00